Time;durP1;ratioP1;P1;durP2;ratioP2;P2;SDS_P1;SDS_P2;PMS_P1;PMS_P2;Temp;Humidity;BMP_temperature;BMP_pressure;BME280_temperature;BME280_humidity;BME280_pressure;Samples;Min_cycle;Max_cycle;Signal;HPM_P1;HPM_P2
2023/01/24 00:00:30;;;;;;;9.32;7.22;;;6.30;99.90;;;;;;4882884;29;20044;-76
2023/01/24 00:02:56;;;;;;;8.30;6.07;;;6.20;99.90;;;;;;4874294;29;20726;-77
2023/01/24 00:05:21;;;;;;;8.25;6.43;;;6.10;99.90;;;;;;4874450;29;20043;-73
2023/01/24 00:07:47;;;;;;;10.77;6.88;;;6.10;99.90;;;;;;4886198;29;20108;-73
2023/01/24 00:10:12;;;;;;;8.98;6.50;;;6.10;99.90;;;;;;4893907;29;20036;-71
2023/01/24 00:12:39;;;;;;;8.05;6.18;;;6.10;99.90;;;;;;4898182;29;20047;-74
2023/01/24 00:15:05;;;;;;;7.90;5.47;;;6.00;99.90;;;;;;4892552;29;20087;-73
2023/01/24 00:17:31;;;;;;;10.00;7.32;;;5.80;99.90;;;;;;4881021;29;20052;-73
2023/01/24 00:19:57;;;;;;;9.52;6.68;;;5.50;99.90;;;;;;4891653;29;20432;-74
2023/01/24 00:22:22;;;;;;;8.18;7.15;;;5.40;99.90;;;;;;4892247;29;20047;-75
2023/01/24 00:24:48;;;;;;;7.38;6.45;;;5.20;99.90;;;;;;4894759;29;20497;-74
2023/01/24 00:27:15;;;;;;;7.47;6.32;;;5.10;99.90;;;;;;4895948;29;20040;-74
2023/01/24 00:29:41;;;;;;;8.90;7.22;;;5.00;99.90;;;;;;4907954;29;20075;-72
2023/01/24 00:32:06;;;;;;;8.85;6.90;;;4.90;99.90;;;;;;4903956;29;20103;-71
2023/01/24 00:34:32;;;;;;;8.57;7.18;;;4.90;99.90;;;;;;4882606;29;20501;-75
2023/01/24 00:36:58;;;;;;;8.05;6.63;;;4.90;99.90;;;;;;4894612;29;20076;-74
2023/01/24 00:39:23;;;;;;;8.93;6.15;;;4.90;99.90;;;;;;4898034;29;20587;-74
2023/01/24 00:41:49;;;;;;;7.63;5.72;;;5.00;99.90;;;;;;4894339;29;20048;-73
2023/01/24 00:44:14;;;;;;;9.68;6.45;;;4.90;99.90;;;;;;4896174;29;20044;-72
2023/01/24 00:46:41;;;;;;;8.30;6.13;;;4.90;99.90;;;;;;4895326;29;20020;-77
2023/01/24 00:49:06;;;;;;;7.47;5.50;;;5.00;99.90;;;;;;4896464;29;20128;-76
2023/01/24 00:51:33;;;;;;;8.65;5.85;;;5.00;99.90;;;;;;4894718;29;20116;-74
2023/01/24 00:53:58;;;;;;;8.68;5.57;;;5.00;99.90;;;;;;4893918;29;20152;-76
2023/01/24 00:56:24;;;;;;;9.88;5.75;;;5.00;99.90;;;;;;4899560;29;20056;-76
2023/01/24 00:58:50;;;;;;;8.25;5.50;;;5.00;99.90;;;;;;4883029;29;20073;-77
2023/01/24 01:01:15;;;;;;;7.13;5.65;;;5.00;99.90;;;;;;4894039;29;20127;-78
2023/01/24 01:03:41;;;;;;;6.85;5.43;;;5.00;99.90;;;;;;4901843;29;20072;-74
2023/01/24 01:06:12;;;;;;;7.40;5.80;;;5.00;99.90;;;;;;4895310;29;20706;-75
2023/01/24 01:08:38;;;;;;;6.95;5.25;;;4.90;99.90;;;;;;4902340;29;20040;-74
2023/01/24 01:11:04;;;;;;;7.50;5.50;;;4.90;99.90;;;;;;4898201;29;20044;-72
2023/01/24 01:13:29;;;;;;;7.63;5.68;;;4.90;99.90;;;;;;4899822;29;20120;-76
2023/01/24 01:16:12;;;;;;;8.68;6.30;;;4.90;99.90;;;;;;4895059;29;20051;-74
2023/01/24 01:18:38;;;;;;;9.20;6.28;;;4.90;99.90;;;;;;4903222;29;20028;-72
2023/01/24 01:21:05;;;;;;;7.70;5.90;;;4.90;99.90;;;;;;4901747;29;20083;-73
2023/01/24 01:23:31;;;;;;;10.60;6.65;;;4.80;99.90;;;;;;4888358;29;20048;-75
2023/01/24 01:26:01;;;;;;;9.07;6.10;;;4.80;99.90;;;;;;4894467;29;20543;-75
2023/01/24 01:28:28;;;;;;;10.00;5.50;;;4.90;99.90;;;;;;4904817;29;20045;-73
2023/01/24 01:30:55;;;;;;;9.15;6.20;;;4.90;99.90;;;;;;4895878;29;20040;-74
2023/01/24 01:33:21;;;;;;;9.15;6.65;;;4.80;99.90;;;;;;4900085;29;20111;-73
2023/01/24 01:35:48;;;;;;;8.00;5.85;;;4.90;99.90;;;;;;4896003;29;20405;-72
2023/01/24 01:38:15;;;;;;;8.75;5.95;;;4.90;99.90;;;;;;4901649;29;20068;-74
2023/01/24 01:40:41;;;;;;;8.77;6.30;;;4.80;99.90;;;;;;4898422;29;20041;-73
2023/01/24 01:43:15;;;;;;;8.55;5.80;;;4.80;99.90;;;;;;4896427;29;20465;-76
2023/01/24 01:45:49;;;;;;;9.10;6.75;;;4.70;99.90;;;;;;4890750;29;20052;-76
2023/01/24 01:48:33;;;;;;;8.23;6.40;;;4.70;99.90;;;;;;4872968;29;20520;-74
2023/01/24 01:51:11;;;;;;;9.73;7.10;;;4.70;99.90;;;;;;4892898;29;20131;-71
2023/01/24 01:53:48;;;;;;;11.95;7.03;;;4.70;99.90;;;;;;4894663;29;20100;-71
2023/01/24 01:56:37;;;;;;;6.28;5.20;;;4.60;99.90;;;;;;4891615;29;20036;-70
2023/01/24 01:59:14;;;;;;;6.75;5.93;;;4.60;99.90;;;;;;4895188;29;20409;-71
2023/01/24 02:01:41;;;;;;;10.18;6.22;;;4.50;99.90;;;;;;4890404;29;20048;-71
2023/01/24 02:04:32;;;;;;;11.23;6.45;;;4.50;99.90;;;;;;4888734;29;21375;-72
2023/01/24 02:07:21;;;;;;;8.48;6.35;;;4.40;99.90;;;;;;4890564;29;20283;-72
2023/01/24 02:09:50;;;;;;;6.32;5.28;;;4.40;99.90;;;;;;4887411;29;20048;-74
2023/01/24 02:12:26;;;;;;;7.15;5.28;;;4.30;99.90;;;;;;4894648;29;20036;-75
2023/01/24 02:17:42;;;;;;;6.70;5.43;;;4.30;99.90;;;;;;4887586;29;20128;-74
2023/01/24 02:20:09;;;;;;;6.65;5.30;;;4.30;99.90;;;;;;4894411;29;20036;-74
2023/01/24 02:22:37;;;;;;;8.70;6.53;;;4.30;99.90;;;;;;4894912;29;20068;-74
2023/01/24 02:25:24;;;;;;;6.70;5.63;;;4.30;99.90;;;;;;4891639;29;20087;-74
2023/01/24 02:27:51;;;;;;;7.00;5.70;;;4.40;99.90;;;;;;4896038;29;20610;-74
2023/01/24 02:30:16;;;;;;;10.25;5.97;;;4.40;99.90;;;;;;4890600;29;20040;-73
2023/01/24 02:32:42;;;;;;;7.05;5.50;;;4.40;99.90;;;;;;4898171;29;20062;-73
2023/01/24 02:35:29;;;;;;;9.27;5.80;;;4.50;99.90;;;;;;4892796;29;20088;-72
2023/01/24 02:37:58;;;;;;;8.10;5.82;;;4.40;99.90;;;;;;4893112;29;20079;-73
2023/01/24 02:40:26;;;;;;;6.90;5.22;;;4.40;99.90;;;;;;4890048;29;20158;-73
2023/01/24 02:42:55;;;;;;;6.93;5.50;;;4.30;99.90;;;;;;4898993;29;20671;-73
2023/01/24 02:45:25;;;;;;;8.15;5.60;;;4.30;99.90;;;;;;4892204;29;20643;-72
2023/01/24 02:47:53;;;;;;;9.48;5.32;;;4.20;99.90;;;;;;4883834;29;20060;-73
2023/01/24 02:50:22;;;;;;;6.88;5.13;;;4.20;99.90;;;;;;4891520;29;20111;-73
2023/01/24 02:55:33;;;;;;;7.72;5.47;;;4.20;99.90;;;;;;4891303;29;20476;-73
2023/01/24 02:58:05;;;;;;;7.32;5.95;;;4.30;99.90;;;;;;4889820;29;20044;-73
2023/01/24 03:00:42;;;;;;;6.05;5.15;;;4.30;99.90;;;;;;4885846;29;20155;-72
2023/01/24 03:03:09;;;;;;;7.70;4.95;;;4.30;99.90;;;;;;4898173;29;20172;-73
2023/01/24 03:05:56;;;;;;;6.20;4.72;;;4.30;99.90;;;;;;4900236;29;20523;-74
2023/01/24 03:08:26;;;;;;;6.60;5.18;;;4.40;99.90;;;;;;4899935;29;20540;-74
2023/01/24 03:10:53;;;;;;;7.53;5.68;;;4.30;99.90;;;;;;4899239;29;20040;-74
2023/01/24 03:35:14;;;;;;;12.55;8.02;;;4.40;99.90;;;;;;4895121;29;20106;-72
2023/01/24 03:40:23;;;;;;;9.77;8.45;;;4.20;99.90;;;;;;4900889;29;20191;-73
2023/01/24 03:42:49;;;;;;;13.45;12.07;;;4.20;99.90;;;;;;4898397;29;20040;-73
2023/01/24 03:45:19;;;;;;;9.02;7.53;;;4.10;99.90;;;;;;4891415;29;20036;-73
2023/01/24 03:48:04;;;;;;;8.20;6.30;;;4.00;99.90;;;;;;4900421;29;20046;-74
2023/01/24 03:53:26;;;;;;;6.82;4.60;;;3.90;99.90;;;;;;4886122;29;20116;-73
2023/01/24 03:55:57;;;;;;;6.88;5.78;;;3.80;99.90;;;;;;4887414;29;20127;-73
2023/01/24 03:58:23;;;;;;;5.93;5.18;;;3.80;99.90;;;;;;4892832;29;20096;-73
2023/01/24 04:00:49;;;;;;;7.18;5.65;;;3.80;99.90;;;;;;4890434;29;20542;-74
2023/01/24 04:03:14;;;;;;;7.93;5.28;;;3.80;99.90;;;;;;4880844;29;20046;-73
2023/01/24 04:05:40;;;;;;;8.02;5.43;;;3.80;99.90;;;;;;4895136;29;20052;-72
2023/01/24 04:08:07;;;;;;;5.50;4.32;;;3.90;99.90;;;;;;4898171;29;20043;-73
2023/01/24 04:10:33;;;;;;;8.32;5.07;;;3.90;99.90;;;;;;4892080;29;20793;-73
2023/01/24 04:12:59;;;;;;;6.75;5.05;;;3.80;99.90;;;;;;4895907;29;20040;-72
2023/01/24 04:15:30;;;;;;;9.50;6.32;;;3.80;99.90;;;;;;4898811;29;20626;-72
2023/01/24 04:17:58;;;;;;;7.88;5.25;;;3.80;99.90;;;;;;4895331;29;20077;-73
2023/01/24 04:20:26;;;;;;;8.93;6.40;;;3.80;99.90;;;;;;4897730;29;20035;-72
2023/01/24 04:22:51;;;;;;;11.48;7.90;;;3.80;99.90;;;;;;4897950;29;20040;-74
2023/01/24 04:25:18;;;;;;;11.85;8.13;;;3.90;99.90;;;;;;4896537;29;20047;-74
2023/01/24 04:27:44;;;;;;;10.05;7.88;;;4.00;99.90;;;;;;4895888;29;20080;-74
2023/01/24 04:30:11;;;;;;;11.77;7.88;;;4.00;99.90;;;;;;4895796;29;20525;-74
2023/01/24 04:32:37;;;;;;;13.50;7.63;;;4.10;99.90;;;;;;4892448;29;20086;-74
2023/01/24 04:35:04;;;;;;;10.15;7.45;;;4.20;99.90;;;;;;4900970;29;20112;-74
2023/01/24 04:37:31;;;;;;;12.82;8.43;;;4.20;99.90;;;;;;4895417;29;20061;-73
2023/01/24 04:39:57;;;;;;;11.35;7.75;;;4.30;99.90;;;;;;4899623;29;20244;-73
2023/01/24 04:42:23;;;;;;;9.88;7.47;;;4.30;99.90;;;;;;4902427;29;20417;-72
2023/01/24 04:44:48;;;;;;;7.95;5.95;;;4.20;99.90;;;;;;4899743;29;20508;-73
2023/01/24 04:47:14;;;;;;;8.20;5.88;;;4.20;99.90;;;;;;4895307;29;20036;-72
2023/01/24 04:49:43;;;;;;;6.00;5.10;;;4.10;99.90;;;;;;4900890;29;20688;-72
2023/01/24 04:52:11;;;;;;;9.68;5.68;;;4.10;99.90;;;;;;4897997;29;20055;-72
2023/01/24 04:54:40;;;;;;;10.02;5.50;;;4.10;99.90;;;;;;4890549;29;20052;-72
2023/01/24 04:57:07;;;;;;;8.35;5.80;;;4.00;99.90;;;;;;4882496;29;20052;-72
2023/01/24 04:59:33;;;;;;;6.95;5.43;;;4.10;99.90;;;;;;4878900;29;20470;-72
2023/01/24 05:01:59;;;;;;;7.15;5.60;;;4.00;99.90;;;;;;4879945;29;20045;-74
2023/01/24 05:04:24;;;;;;;7.97;5.80;;;4.00;99.90;;;;;;4877442;29;20045;-74
2023/01/24 05:06:50;;;;;;;7.50;5.90;;;4.00;99.90;;;;;;4881313;29;20581;-74
2023/01/24 05:09:15;;;;;;;11.45;5.90;;;4.00;99.90;;;;;;4881167;29;20048;-74
2023/01/24 05:11:41;;;;;;;7.80;5.53;;;4.00;99.90;;;;;;4881454;29;20040;-74
2023/01/24 05:14:10;;;;;;;7.97;5.32;;;4.00;99.90;;;;;;4892116;29;20067;-73
2023/01/24 05:16:36;;;;;;;10.70;6.53;;;4.00;99.90;;;;;;4876830;29;20146;-73
2023/01/24 05:19:02;;;;;;;10.27;6.20;;;4.10;99.90;;;;;;4880098;29;20044;-74
2023/01/24 05:21:28;;;;;;;8.15;6.10;;;4.10;99.90;;;;;;4878128;29;20045;-72
2023/01/24 05:23:54;;;;;;;10.77;7.15;;;4.10;99.90;;;;;;4885488;29;20668;-72
2023/01/24 05:26:21;;;;;;;8.85;6.72;;;4.20;99.90;;;;;;4882578;29;20066;-72
2023/01/24 05:28:48;;;;;;;7.93;6.10;;;4.30;99.90;;;;;;4876637;29;20513;-72
2023/01/24 05:31:14;;;;;;;9.88;7.32;;;4.30;99.90;;;;;;4878712;29;20071;-72
2023/01/24 05:33:40;;;;;;;7.80;5.75;;;4.30;99.90;;;;;;4875272;29;20119;-72
2023/01/24 05:36:11;;;;;;;11.27;6.57;;;4.20;99.90;;;;;;4875946;29;20049;-72
2023/01/24 05:38:37;;;;;;;9.82;7.18;;;4.20;99.90;;;;;;4882400;29;20037;-71
2023/01/24 05:41:07;;;;;;;10.30;6.95;;;4.20;99.90;;;;;;4882646;29;20123;-72
2023/01/24 05:43:34;;;;;;;9.93;5.75;;;4.10;99.90;;;;;;4876823;29;20079;-71
2023/01/24 05:46:09;;;;;;;8.80;5.90;;;4.10;99.90;;;;;;4878322;29;20033;-73
2023/01/24 05:48:35;;;;;;;7.75;5.78;;;4.10;99.90;;;;;;4878658;29;20123;-72
2023/01/24 05:51:09;;;;;;;7.60;5.15;;;4.10;99.90;;;;;;4882501;29;20132;-72
2023/01/24 05:53:40;;;;;;;7.80;5.43;;;4.20;99.90;;;;;;4875572;29;20055;-73
2023/01/24 05:56:09;;;;;;;7.78;5.28;;;4.20;99.90;;;;;;4902156;29;20086;-73
2023/01/24 05:58:37;;;;;;;7.85;5.63;;;4.20;99.90;;;;;;4898388;29;20035;-75
2023/01/24 06:01:10;;;;;;;6.28;4.95;;;4.20;99.90;;;;;;4899516;29;20051;-75
2023/01/24 06:03:40;;;;;;;5.78;4.75;;;4.20;99.90;;;;;;4899261;29;20754;-74
2023/01/24 06:06:07;;;;;;;7.88;5.90;;;4.30;99.90;;;;;;4898626;29;20055;-76
2023/01/24 06:08:33;;;;;;;11.05;4.53;;;4.30;99.90;;;;;;4896620;29;20044;-76
2023/01/24 06:11:07;;;;;;;6.20;4.72;;;4.30;99.90;;;;;;4893379;29;20114;-75
2023/01/24 06:13:33;;;;;;;6.45;5.05;;;4.30;99.90;;;;;;4897632;29;20085;-72
2023/01/24 06:16:08;;;;;;;7.50;4.75;;;4.30;99.90;;;;;;4897553;29;20115;-74
2023/01/24 06:18:34;;;;;;;9.02;5.95;;;4.30;99.90;;;;;;4896781;29;20036;-74
2023/01/24 06:21:25;;;;;;;9.57;5.75;;;4.30;99.90;;;;;;4897610;29;20158;-73
2023/01/24 06:23:51;;;;;;;15.18;5.45;;;4.40;99.90;;;;;;4870392;29;20040;-75
2023/01/24 06:26:16;;;;;;;11.88;7.05;;;4.30;99.90;;;;;;4901461;29;20029;-74
2023/01/24 06:28:42;;;;;;;7.72;5.75;;;4.40;99.90;;;;;;4899845;29;20039;-75
2023/01/24 06:31:27;;;;;;;8.18;5.57;;;4.30;99.90;;;;;;4901015;29;20036;-73
2023/01/24 06:34:04;;;;;;;8.27;5.40;;;4.30;99.90;;;;;;4890110;29;20055;-71
2023/01/24 06:36:38;;;;;;;5.82;4.63;;;4.20;99.90;;;;;;4892884;29;20513;-74
2023/01/24 06:39:12;;;;;;;8.93;5.93;;;4.20;99.90;;;;;;4895902;29;20049;-75
2023/01/24 06:41:38;;;;;;;11.02;7.28;;;4.20;99.90;;;;;;4902382;29;20044;-75
2023/01/24 06:44:04;;;;;;;8.15;6.18;;;4.30;99.90;;;;;;4899174;29;20450;-75
2023/01/24 06:46:29;;;;;;;7.47;5.93;;;4.40;99.90;;;;;;4900414;29;20071;-75
2023/01/24 06:48:55;;;;;;;12.20;6.80;;;4.40;99.90;;;;;;4896818;29;20124;-75
2023/01/24 06:51:20;;;;;;;11.43;7.50;;;4.40;99.90;;;;;;4904829;29;20704;-75
2023/01/24 06:53:46;;;;;;;13.75;8.75;;;4.40;99.90;;;;;;4900800;29;20052;-75
2023/01/24 06:56:12;;;;;;;6.90;5.97;;;4.40;99.90;;;;;;4899683;29;20051;-73
2023/01/24 06:58:37;;;;;;;11.10;6.55;;;4.30;99.90;;;;;;4898291;29;20477;-75
2023/01/24 07:01:03;;;;;;;11.90;6.60;;;4.20;99.90;;;;;;4897649;29;20058;-75
2023/01/24 07:03:29;;;;;;;7.93;4.85;;;4.20;99.90;;;;;;4902566;29;20032;-75
2023/01/24 07:05:55;;;;;;;8.25;6.13;;;4.20;99.90;;;;;;4899633;29;20036;-75
2023/01/24 07:08:21;;;;;;;11.10;7.45;;;4.20;99.90;;;;;;4897217;29;20072;-75
2023/01/24 07:10:47;;;;;;;11.55;8.55;;;4.20;99.90;;;;;;4890237;29;20588;-75
2023/01/24 07:13:12;;;;;;;12.95;8.20;;;4.20;99.90;;;;;;4900806;29;20575;-75
2023/01/24 07:15:38;;;;;;;11.77;8.50;;;4.30;99.90;;;;;;4905754;29;20040;-75
2023/01/24 07:18:08;;;;;;;11.77;7.90;;;4.30;99.90;;;;;;4892156;29;20044;-75
2023/01/24 07:20:34;;;;;;;13.43;8.77;;;4.40;99.90;;;;;;4891945;29;20036;-75
2023/01/24 07:23:00;;;;;;;13.45;8.95;;;4.50;99.90;;;;;;4895874;29;20130;-75
2023/01/24 07:25:27;;;;;;;17.08;10.35;;;4.60;99.90;;;;;;4899420;29;20186;-74
2023/01/24 07:27:53;;;;;;;18.38;10.32;;;4.70;99.90;;;;;;4895884;29;20424;-74
2023/01/24 07:30:18;;;;;;;14.35;9.82;;;4.80;99.90;;;;;;4898178;29;20043;-75
2023/01/24 07:32:44;;;;;;;14.55;10.05;;;4.90;99.90;;;;;;4893469;29;20042;-74
2023/01/24 07:35:10;;;;;;;21.13;13.40;;;4.90;99.90;;;;;;4893027;29;20052;-71
2023/01/24 07:37:35;;;;;;;35.85;22.52;;;4.80;99.90;;;;;;4893105;29;20151;-71
2023/01/24 07:40:01;;;;;;;40.20;23.77;;;4.70;99.90;;;;;;4898975;29;20047;-71
2023/01/24 07:42:27;;;;;;;52.45;28.98;;;4.70;99.90;;;;;;4899659;29;20045;-71
2023/01/24 07:44:53;;;;;;;56.00;30.67;;;4.60;99.90;;;;;;4900954;29;20047;-71
2023/01/24 07:47:20;;;;;;;63.25;35.28;;;4.60;99.90;;;;;;4899275;29;20044;-71
2023/01/24 07:49:45;;;;;;;53.35;30.88;;;4.60;99.90;;;;;;4885503;29;20044;-71
2023/01/24 07:52:11;;;;;;;47.13;28.98;;;4.70;99.90;;;;;;4900856;29;20077;-72
2023/01/24 07:54:37;;;;;;;44.65;26.63;;;4.70;99.90;;;;;;4895484;29;20130;-71
2023/01/24 07:57:03;;;;;;;41.50;24.02;;;4.80;99.90;;;;;;4894701;29;20047;-71
2023/01/24 07:59:28;;;;;;;43.33;27.13;;;4.80;99.90;;;;;;4893295;29;20572;-72
2023/01/24 08:01:54;;;;;;;48.75;26.75;;;4.90;99.90;;;;;;4894145;29;20033;-71
2023/01/24 08:04:20;;;;;;;40.03;23.77;;;5.00;99.90;;;;;;4888557;29;20083;-71
2023/01/24 08:09:30;;;;;;;32.50;21.35;;;5.10;99.90;;;;;;4909004;29;20063;-74
2023/01/24 08:11:56;;;;;;;33.00;21.95;;;5.20;99.90;;;;;;4896706;29;20036;-74
2023/01/24 08:14:22;;;;;;;26.30;17.95;;;5.20;99.90;;;;;;4902391;29;20032;-75
2023/01/24 08:16:49;;;;;;;24.17;14.90;;;5.30;99.90;;;;;;4906390;29;20075;-75
2023/01/24 08:19:14;;;;;;;21.92;15.00;;;5.30;99.90;;;;;;4907250;29;20051;-77
2023/01/24 08:21:40;;;;;;;14.68;9.98;;;5.40;99.90;;;;;;4904986;29;20044;-78
2023/01/24 08:24:06;;;;;;;12.35;8.65;;;5.70;99.90;;;;;;4901968;29;20188;-74
2023/01/24 08:26:32;;;;;;;8.63;5.90;;;5.90;99.90;;;;;;4886871;29;20028;-75
2023/01/24 08:28:57;;;;;;;9.40;6.13;;;6.10;99.90;;;;;;4902103;29;20036;-74
2023/01/24 08:31:23;;;;;;;22.45;16.23;;;6.40;99.90;;;;;;4905120;29;20040;-70
2023/01/24 08:33:49;;;;;;;22.33;14.48;;;6.50;99.90;;;;;;4900464;29;20056;-71
2023/01/24 08:36:14;;;;;;;25.65;19.25;;;6.50;99.90;;;;;;4886983;29;20055;-73
2023/01/24 08:38:40;;;;;;;23.88;18.83;;;6.60;99.90;;;;;;4899584;29;20040;-72
2023/01/24 08:41:07;;;;;;;21.45;15.30;;;6.80;99.90;;;;;;4880041;29;20052;-72
2023/01/24 08:43:32;;;;;;;16.50;12.32;;;6.80;99.90;;;;;;4895886;29;20051;-72
2023/01/24 08:45:58;;;;;;;15.43;10.95;;;7.00;99.90;;;;;;4897049;29;20465;-71
2023/01/24 08:48:24;;;;;;;7.03;4.95;;;7.20;99.90;;;;;;4901227;29;20620;-71
2023/01/24 08:50:49;;;;;;;5.32;4.00;;;7.40;99.90;;;;;;4895838;29;20608;-72
2023/01/24 08:53:15;;;;;;;7.45;4.38;;;7.60;99.90;;;;;;4897953;29;20035;-72
2023/01/24 08:55:41;;;;;;;5.45;4.60;;;7.80;99.90;;;;;;4890845;29;20091;-72
2023/01/24 08:58:06;;;;;;;13.13;9.18;;;8.00;99.90;;;;;;4897131;29;20147;-72
2023/01/24 09:00:32;;;;;;;7.25;4.60;;;8.10;99.90;;;;;;4899541;29;20028;-72
2023/01/24 09:03:00;;;;;;;15.07;10.90;;;8.00;99.90;;;;;;4897501;29;20693;-73
2023/01/24 09:05:27;;;;;;;15.07;11.63;;;7.90;99.90;;;;;;4901136;29;20119;-73
2023/01/24 09:07:52;;;;;;;14.15;10.63;;;7.90;99.90;;;;;;4884037;29;20072;-77
2023/01/24 09:10:18;;;;;;;9.45;7.32;;;8.00;99.90;;;;;;4887313;29;20071;-74
2023/01/24 09:12:44;;;;;;;8.98;7.03;;;8.20;99.90;;;;;;4902673;29;20048;-74
2023/01/24 09:15:10;;;;;;;10.77;7.18;;;8.20;99.90;;;;;;4888435;29;20123;-74
2023/01/24 09:17:37;;;;;;;8.70;4.15;;;8.20;99.90;;;;;;4891375;29;20059;-73
2023/01/24 09:20:03;;;;;;;19.80;13.63;;;8.20;99.90;;;;;;4890810;29;20569;-74
2023/01/24 09:22:28;;;;;;;19.67;13.50;;;8.30;99.90;;;;;;4897020;29;20075;-74
2023/01/24 09:24:54;;;;;;;11.70;7.05;;;8.30;99.90;;;;;;4892541;29;20489;-73
2023/01/24 09:27:20;;;;;;;14.05;9.90;;;8.30;99.90;;;;;;4892641;29;20126;-74
2023/01/24 09:29:45;;;;;;;18.90;13.70;;;8.40;99.90;;;;;;4881758;29;20634;-73
2023/01/24 09:32:12;;;;;;;10.57;7.78;;;8.50;99.90;;;;;;4898243;29;20040;-74
2023/01/24 09:34:45;;;;;;;6.43;5.13;;;8.50;99.90;;;;;;4904640;29;20100;-74
2023/01/24 09:37:11;;;;;;;6.35;5.20;;;8.50;99.90;;;;;;4893875;29;20068;-74
2023/01/24 09:39:37;;;;;;;4.28;3.88;;;8.50;99.90;;;;;;4889995;29;20090;-74
2023/01/24 09:42:21;;;;;;;4.95;3.90;;;8.60;99.90;;;;;;4887145;29;20037;-76
2023/01/24 09:45:07;;;;;;;4.50;4.03;;;8.70;99.90;;;;;;4903097;29;20060;-73
2023/01/24 09:47:48;;;;;;;7.22;5.68;;;8.80;99.90;;;;;;4902171;29;20051;-72
2023/01/24 09:50:42;;;;;;;5.22;4.38;;;8.80;99.90;;;;;;4879550;29;20024;-72
2023/01/24 09:53:37;;;;;;;7.05;3.80;;;8.80;99.90;;;;;;4882386;29;20097;-72
2023/01/24 09:56:05;;;;;;;4.90;3.88;;;8.80;99.90;;;;;;4876683;29;20052;-71
2023/01/24 09:58:39;;;;;;;5.72;4.68;;;8.80;99.90;;;;;;4897980;29;20405;-71
2023/01/24 10:01:11;;;;;;;6.20;3.97;;;8.90;99.90;;;;;;4900112;29;20119;-71
2023/01/24 10:03:38;;;;;;;14.27;10.25;;;9.00;99.90;;;;;;4890896;29;20029;-72
2023/01/24 10:06:16;;;;;;;5.32;4.32;;;9.00;99.90;;;;;;4899309;29;20032;-71
2023/01/24 10:09:07;;;;;;;15.27;11.50;;;9.10;99.90;;;;;;4896982;29;20048;-71
2023/01/24 10:11:59;;;;;;;7.85;5.85;;;9.20;99.90;;;;;;4899622;29;20050;-71
2023/01/24 10:14:46;;;;;;;5.95;3.75;;;9.20;99.90;;;;;;4901104;29;20055;-71
2023/01/24 10:17:32;;;;;;;5.88;3.83;;;9.20;99.90;;;;;;4896477;29;20052;-71
2023/01/24 10:20:28;;;;;;;11.50;9.27;;;9.20;99.90;;;;;;4901732;29;20029;-72
2023/01/24 10:23:19;;;;;;;3.72;3.30;;;9.20;99.90;;;;;;4898189;29;20040;-72
2023/01/24 10:25:56;;;;;;;25.60;17.38;;;9.30;99.90;;;;;;4901986;29;20041;-71
2023/01/24 10:28:28;;;;;;;26.30;18.02;;;9.30;99.90;;;;;;4896641;29;20044;-72
2023/01/24 10:31:09;;;;;;;8.68;7.03;;;9.20;99.90;;;;;;4891354;29;20187;-71
2023/01/24 10:33:47;;;;;;;5.15;3.85;;;9.20;99.90;;;;;;4901900;29;20370;-71
2023/01/24 10:36:12;;;;;;;28.85;17.63;;;9.20;99.90;;;;;;4901026;29;20052;-71
2023/01/24 10:38:38;;;;;;;94.07;54.10;;;9.20;99.90;;;;;;4901046;29;20095;-71
2023/01/24 10:41:21;;;;;;;11.93;9.15;;;9.20;99.90;;;;;;4896220;29;20043;-72
2023/01/24 10:43:53;;;;;;;11.05;9.30;;;9.30;99.90;;;;;;4893507;29;20051;-71
2023/01/24 10:46:54;;;;;;;10.65;9.18;;;9.30;99.90;;;;;;4873520;29;20045;-74
2023/01/24 10:49:26;;;;;;;3.88;3.22;;;9.30;99.90;;;;;;4878144;29;20143;-75
2023/01/24 10:52:11;;;;;;;6.50;5.78;;;9.40;99.90;;;;;;4898276;29;20673;-75
2023/01/24 10:54:52;;;;;;;5.00;4.20;;;9.50;99.90;;;;;;4900147;29;20055;-74
2023/01/24 10:57:44;;;;;;;3.50;2.95;;;9.50;99.90;;;;;;4898536;29;20087;-75
2023/01/24 11:00:33;;;;;;;7.22;4.72;;;9.50;99.90;;;;;;4892291;29;22490;-75
2023/01/24 11:03:19;;;;;;;5.22;3.40;;;9.60;99.90;;;;;;4899393;29;20040;-75
2023/01/24 11:05:53;;;;;;;3.58;2.83;;;9.60;99.90;;;;;;4893434;29;20100;-75
2023/01/24 11:08:31;;;;;;;3.40;3.08;;;9.60;99.90;;;;;;4900561;29;20040;-74
2023/01/24 11:11:01;;;;;;;3.60;3.25;;;9.50;99.90;;;;;;4902401;29;20023;-75
2023/01/24 11:13:38;;;;;;;8.10;3.30;;;9.50;99.90;;;;;;4897653;29;20037;-75
2023/01/24 11:16:06;;;;;;;5.78;3.58;;;9.60;99.90;;;;;;4894349;29;20329;-75
2023/01/24 11:18:33;;;;;;;4.85;3.08;;;9.70;99.90;;;;;;4900730;29;20106;-75
2023/01/24 11:21:12;;;;;;;4.50;3.65;;;9.70;99.90;;;;;;4897038;29;20036;-72
2023/01/24 11:23:40;;;;;;;3.90;3.05;;;9.80;99.90;;;;;;4893624;29;20048;-74
2023/01/24 11:26:19;;;;;;;4.60;3.35;;;9.80;99.90;;;;;;4899073;29;20043;-74
2023/01/24 11:28:44;;;;;;;3.45;2.63;;;9.80;99.90;;;;;;4900099;29;20028;-75
2023/01/24 11:31:38;;;;;;;4.65;4.00;;;9.70;99.90;;;;;;4915468;29;20151;-75
2023/01/24 11:34:16;;;;;;;5.00;3.83;;;9.70;99.90;;;;;;4890777;29;20052;-75
2023/01/24 11:37:04;;;;;;;4.10;2.95;;;9.70;99.90;;;;;;4897195;29;20601;-74
2023/01/24 11:39:39;;;;;;;7.28;3.00;;;9.70;99.90;;;;;;4896060;29;20036;-74
2023/01/24 11:42:19;;;;;;;4.10;3.03;;;9.80;99.90;;;;;;4911146;29;20071;-72
2023/01/24 11:44:56;;;;;;;4.63;2.95;;;9.80;99.90;;;;;;4885251;29;20444;-72
2023/01/24 11:47:52;;;;;;;6.82;3.67;;;9.80;99.90;;;;;;4892195;29;20032;-72
2023/01/24 11:50:29;;;;;;;4.38;3.20;;;9.80;99.90;;;;;;4869906;29;20041;-72
2023/01/24 11:53:11;;;;;;;3.88;3.08;;;9.80;99.90;;;;;;4892215;29;20156;-71
2023/01/24 11:55:47;;;;;;;2.85;2.63;;;9.80;99.90;;;;;;4895771;29;20088;-72
2023/01/24 11:58:28;;;;;;;6.00;4.63;;;9.80;99.90;;;;;;4902909;29;20733;-72
2023/01/24 12:01:12;;;;;;;8.02;6.22;;;9.90;99.90;;;;;;4900360;29;20064;-72
2023/01/24 12:04:25;;;;;;;5.50;4.10;;;10.00;99.90;;;;;;4887351;29;20043;-72
2023/01/24 12:07:10;;;;;;;6.88;4.57;;;10.00;99.90;;;;;;4903084;29;20040;-71
2023/01/24 12:10:17;;;;;;;4.10;3.13;;;10.00;99.90;;;;;;4886153;29;20032;-72
2023/01/24 12:13:09;;;;;;;3.72;2.92;;;9.90;99.90;;;;;;4881260;29;21191;-72
2023/01/24 12:16:12;;;;;;;5.72;3.22;;;9.90;99.90;;;;;;4892563;29;20069;-71
2023/01/24 12:18:59;;;;;;;9.50;6.53;;;9.90;99.90;;;;;;4890688;29;20090;-71
2023/01/24 12:21:25;;;;;;;4.40;3.63;;;9.90;99.90;;;;;;4895907;29;20052;-71
2023/01/24 12:24:05;;;;;;;11.70;8.57;;;9.90;99.90;;;;;;4900818;29;20040;-71
2023/01/24 12:26:43;;;;;;;5.50;4.20;;;9.90;99.90;;;;;;4899982;29;20430;-72
2023/01/24 12:29:18;;;;;;;5.72;3.55;;;9.80;99.90;;;;;;4898600;29;20032;-72
2023/01/24 12:32:02;;;;;;;6.00;4.13;;;9.80;99.90;;;;;;4897604;29;20048;-72
2023/01/24 12:34:53;;;;;;;8.80;7.85;;;9.80;99.90;;;;;;4908429;29;20032;-72
2023/01/24 12:37:19;;;;;;;5.15;4.32;;;9.80;99.90;;;;;;4896957;29;20062;-72
2023/01/24 12:39:50;;;;;;;4.43;3.65;;;9.80;99.90;;;;;;4896829;29;20041;-72
2023/01/24 12:42:31;;;;;;;5.47;4.90;;;9.70;99.90;;;;;;4896953;29;20064;-70
2023/01/24 12:45:05;;;;;;;5.97;3.63;;;9.60;99.90;;;;;;4895051;29;20047;-72
2023/01/24 12:48:09;;;;;;;8.45;7.55;;;9.60;99.90;;;;;;4896359;29;20143;-72
2023/01/24 12:51:06;;;;;;;5.68;5.03;;;9.70;99.90;;;;;;4881967;29;20044;-72
2023/01/24 12:53:44;;;;;;;4.65;3.70;;;9.70;99.90;;;;;;4891710;29;20553;-72
2023/01/24 12:56:34;;;;;;;5.47;3.88;;;9.70;99.90;;;;;;4897742;29;20446;-73
2023/01/24 12:59:00;;;;;;;3.38;3.00;;;9.70;99.90;;;;;;4895616;29;20931;-72
2023/01/24 13:02:12;;;;;;;4.03;3.30;;;9.70;99.90;;;;;;4883994;29;20151;-71
2023/01/24 13:05:02;;;;;;;4.57;3.50;;;9.60;99.90;;;;;;4895883;29;20797;-68
2023/01/24 13:08:06;;;;;;;11.55;10.35;;;9.70;99.90;;;;;;4890586;29;20042;-71
2023/01/24 13:10:53;;;;;;;10.65;4.18;;;9.70;99.90;;;;;;4889359;29;20048;-70
2023/01/24 13:14:00;;;;;;;4.22;3.38;;;9.70;99.90;;;;;;4894052;29;20497;-72
2023/01/24 13:17:02;;;;;;;4.93;3.47;;;9.70;99.90;;;;;;4894588;29;20041;-71
2023/01/24 13:19:27;;;;;;;7.38;5.88;;;9.60;99.90;;;;;;4896760;29;20037;-72
2023/01/24 13:22:12;;;;;;;7.72;5.22;;;9.60;99.90;;;;;;4890025;29;20539;-71
2023/01/24 13:25:21;;;;;;;8.40;7.15;;;9.70;99.90;;;;;;4893839;29;20400;-72
2023/01/24 13:28:05;;;;;;;6.68;4.95;;;9.90;99.90;;;;;;4884474;29;20127;-71
2023/01/24 13:30:49;;;;;;;7.50;5.60;;;9.90;99.90;;;;;;4886674;29;20055;-71
2023/01/24 13:33:21;;;;;;;7.20;5.05;;;10.00;99.90;;;;;;4896760;29;20107;-72
2023/01/24 13:35:51;;;;;;;10.57;6.82;;;10.10;99.90;;;;;;4885602;29;20135;-72
2023/01/24 13:38:34;;;;;;;5.65;4.55;;;10.20;99.90;;;;;;4917699;28;20047;-72
2023/01/24 13:41:05;;;;;;;5.90;4.53;;;10.30;99.90;;;;;;4897994;29;20044;-71
2023/01/24 13:43:57;;;;;;;4.82;3.90;;;10.40;99.90;;;;;;4880926;29;20131;-71
2023/01/24 13:46:41;;;;;;;10.83;6.10;;;10.50;99.90;;;;;;4895986;29;20075;-71
2023/01/24 13:49:35;;;;;;;8.55;5.45;;;10.70;99.90;;;;;;4900513;29;20046;-71
2023/01/24 13:52:32;;;;;;;8.00;4.93;;;11.00;99.90;;;;;;4893553;29;20130;-71
2023/01/24 13:55:00;;;;;;;5.95;4.30;;;11.40;99.90;;;;;;4891404;29;20067;-70